sensor_id;sensor_type;location;lat;lon;timestamp;P1;durP1;ratioP1;P2;durP2;ratioP2
6113;SDS011;3087;48.392;10.836;2023-05-23T00:01:03;11.35;;;9.40;;
6113;SDS011;3087;48.392;10.836;2023-05-23T00:03:32;11.75;;;9.38;;
6113;SDS011;3087;48.392;10.836;2023-05-23T00:05:58;11.60;;;10.10;;
6113;SDS011;3087;48.392;10.836;2023-05-23T00:08:24;10.20;;;8.95;;
6113;SDS011;3087;48.392;10.836;2023-05-23T00:10:50;11.45;;;9.32;;
6113;SDS011;3087;48.392;10.836;2023-05-23T00:13:15;12.15;;;10.93;;
6113;SDS011;3087;48.392;10.836;2023-05-23T00:15:41;12.25;;;10.90;;
6113;SDS011;3087;48.392;10.836;2023-05-23T00:18:08;11.52;;;10.32;;
6113;SDS011;3087;48.392;10.836;2023-05-23T00:20:39;10.10;;;9.10;;
6113;SDS011;3087;48.392;10.836;2023-05-23T00:23:08;12.52;;;10.55;;
6113;SDS011;3087;48.392;10.836;2023-05-23T00:25:35;10.88;;;9.73;;
6113;SDS011;3087;48.392;10.836;2023-05-23T00:28:02;11.98;;;10.50;;
6113;SDS011;3087;48.392;10.836;2023-05-23T00:30:31;11.57;;;9.57;;
6113;SDS011;3087;48.392;10.836;2023-05-23T00:32:58;12.90;;;11.70;;
6113;SDS011;3087;48.392;10.836;2023-05-23T00:35:24;13.13;;;9.95;;
6113;SDS011;3087;48.392;10.836;2023-05-23T00:37:50;10.93;;;9.82;;
6113;SDS011;3087;48.392;10.836;2023-05-23T00:40:19;10.48;;;9.45;;
6113;SDS011;3087;48.392;10.836;2023-05-23T00:42:46;11.32;;;10.05;;
6113;SDS011;3087;48.392;10.836;2023-05-23T00:45:12;10.80;;;9.57;;
6113;SDS011;3087;48.392;10.836;2023-05-23T00:47:38;11.80;;;9.93;;
6113;SDS011;3087;48.392;10.836;2023-05-23T00:50:08;11.43;;;10.30;;
6113;SDS011;3087;48.392;10.836;2023-05-23T00:52:36;12.90;;;10.73;;
6113;SDS011;3087;48.392;10.836;2023-05-23T00:55:03;10.52;;;9.52;;
6113;SDS011;3087;48.392;10.836;2023-05-23T00:57:29;11.32;;;9.70;;
6113;SDS011;3087;48.392;10.836;2023-05-23T00:59:58;12.68;;;9.95;;
6113;SDS011;3087;48.392;10.836;2023-05-23T01:02:24;10.85;;;9.77;;
6113;SDS011;3087;48.392;10.836;2023-05-23T01:04:51;11.07;;;9.93;;
6113;SDS011;3087;48.392;10.836;2023-05-23T01:07:19;11.88;;;10.25;;
6113;SDS011;3087;48.392;10.836;2023-05-23T01:09:45;11.90;;;10.73;;
6113;SDS011;3087;48.392;10.836;2023-05-23T01:15:08;11.02;;;9.60;;
6113;SDS011;3087;48.392;10.836;2023-05-23T01:20:23;11.55;;;10.45;;
6113;SDS011;3087;48.392;10.836;2023-05-23T01:25:27;14.23;;;10.55;;
6113;SDS011;3087;48.392;10.836;2023-05-23T01:28:23;12.20;;;10.65;;
6113;SDS011;3087;48.392;10.836;2023-05-23T01:30:54;11.60;;;10.40;;
6113;SDS011;3087;48.392;10.836;2023-05-23T01:33:22;14.13;;;11.52;;
6113;SDS011;3087;48.392;10.836;2023-05-23T01:35:49;13.02;;;11.65;;
6113;SDS011;3087;48.392;10.836;2023-05-23T01:38:15;12.73;;;11.13;;
6113;SDS011;3087;48.392;10.836;2023-05-23T01:40:41;12.15;;;10.80;;
6113;SDS011;3087;48.392;10.836;2023-05-23T01:43:07;12.82;;;11.35;;
6113;SDS011;3087;48.392;10.836;2023-05-23T01:45:32;12.88;;;10.45;;
6113;SDS011;3087;48.392;10.836;2023-05-23T01:47:59;13.20;;;10.90;;
6113;SDS011;3087;48.392;10.836;2023-05-23T01:50:26;12.10;;;10.80;;
6113;SDS011;3087;48.392;10.836;2023-05-23T01:52:53;12.88;;;10.80;;
6113;SDS011;3087;48.392;10.836;2023-05-23T01:55:20;12.77;;;11.48;;
6113;SDS011;3087;48.392;10.836;2023-05-23T01:57:52;14.20;;;10.98;;
6113;SDS011;3087;48.392;10.836;2023-05-23T02:00:20;15.15;;;11.15;;
6113;SDS011;3087;48.392;10.836;2023-05-23T02:02:46;15.25;;;12.95;;
6113;SDS011;3087;48.392;10.836;2023-05-23T02:05:12;13.23;;;11.27;;
6113;SDS011;3087;48.392;10.836;2023-05-23T02:07:38;15.63;;;11.50;;
6113;SDS011;3087;48.392;10.836;2023-05-23T02:10:06;16.17;;;12.43;;
6113;SDS011;3087;48.392;10.836;2023-05-23T02:12:32;13.77;;;12.40;;
6113;SDS011;3087;48.392;10.836;2023-05-23T02:14:58;12.68;;;11.32;;
6113;SDS011;3087;48.392;10.836;2023-05-23T02:17:23;12.93;;;11.63;;
6113;SDS011;3087;48.392;10.836;2023-05-23T02:19:49;13.10;;;11.77;;
6113;SDS011;3087;48.392;10.836;2023-05-23T02:22:15;14.00;;;12.60;;
6113;SDS011;3087;48.392;10.836;2023-05-23T02:24:40;13.38;;;12.02;;
6113;SDS011;3087;48.392;10.836;2023-05-23T02:27:06;15.55;;;11.68;;
6113;SDS011;3087;48.392;10.836;2023-05-23T02:29:32;13.55;;;12.13;;
6113;SDS011;3087;48.392;10.836;2023-05-23T02:31:58;13.88;;;11.93;;
6113;SDS011;3087;48.392;10.836;2023-05-23T02:34:24;12.30;;;11.00;;
6113;SDS011;3087;48.392;10.836;2023-05-23T02:36:50;13.07;;;11.82;;
6113;SDS011;3087;48.392;10.836;2023-05-23T02:39:15;13.88;;;12.38;;
6113;SDS011;3087;48.392;10.836;2023-05-23T02:41:41;15.90;;;12.20;;
6113;SDS011;3087;48.392;10.836;2023-05-23T02:44:07;13.90;;;11.88;;
6113;SDS011;3087;48.392;10.836;2023-05-23T02:46:33;14.05;;;12.65;;
6113;SDS011;3087;48.392;10.836;2023-05-23T02:48:58;13.40;;;12.00;;
6113;SDS011;3087;48.392;10.836;2023-05-23T02:51:24;12.93;;;11.60;;
6113;SDS011;3087;48.392;10.836;2023-05-23T02:53:50;13.27;;;11.98;;
6113;SDS011;3087;48.392;10.836;2023-05-23T02:56:15;14.32;;;12.45;;
6113;SDS011;3087;48.392;10.836;2023-05-23T02:58:41;15.18;;;12.93;;
6113;SDS011;3087;48.392;10.836;2023-05-23T03:01:07;14.35;;;12.70;;
6113;SDS011;3087;48.392;10.836;2023-05-23T03:03:33;14.07;;;11.55;;
6113;SDS011;3087;48.392;10.836;2023-05-23T03:05:58;13.68;;;11.60;;
6113;SDS011;3087;48.392;10.836;2023-05-23T03:08:26;14.55;;;12.80;;
6113;SDS011;3087;48.392;10.836;2023-05-23T03:10:51;13.55;;;12.25;;
6113;SDS011;3087;48.392;10.836;2023-05-23T03:13:17;14.77;;;13.18;;
6113;SDS011;3087;48.392;10.836;2023-05-23T03:15:43;13.80;;;12.35;;
6113;SDS011;3087;48.392;10.836;2023-05-23T03:18:08;14.25;;;12.82;;
6113;SDS011;3087;48.392;10.836;2023-05-23T03:20:34;15.25;;;12.45;;
6113;SDS011;3087;48.392;10.836;2023-05-23T03:23:00;15.27;;;12.70;;
6113;SDS011;3087;48.392;10.836;2023-05-23T03:25:26;14.20;;;12.80;;
6113;SDS011;3087;48.392;10.836;2023-05-23T03:27:51;15.93;;;12.52;;
6113;SDS011;3087;48.392;10.836;2023-05-23T03:30:17;18.05;;;16.00;;
6113;SDS011;3087;48.392;10.836;2023-05-23T03:32:43;18.58;;;16.65;;
6113;SDS011;3087;48.392;10.836;2023-05-23T03:35:09;19.48;;;16.13;;
6113;SDS011;3087;48.392;10.836;2023-05-23T03:37:35;17.00;;;15.15;;
6113;SDS011;3087;48.392;10.836;2023-05-23T03:40:00;18.73;;;15.55;;
6113;SDS011;3087;48.392;10.836;2023-05-23T03:42:26;15.05;;;13.50;;
6113;SDS011;3087;48.392;10.836;2023-05-23T03:44:52;16.92;;;15.07;;
6113;SDS011;3087;48.392;10.836;2023-05-23T03:47:18;17.13;;;15.25;;
6113;SDS011;3087;48.392;10.836;2023-05-23T03:49:44;16.70;;;14.93;;
6113;SDS011;3087;48.392;10.836;2023-05-23T03:52:09;14.73;;;12.98;;
6113;SDS011;3087;48.392;10.836;2023-05-23T03:54:35;17.77;;;14.27;;
6113;SDS011;3087;48.392;10.836;2023-05-23T03:57:01;17.08;;;15.13;;
6113;SDS011;3087;48.392;10.836;2023-05-23T03:59:27;18.13;;;15.57;;
6113;SDS011;3087;48.392;10.836;2023-05-23T04:01:53;17.20;;;15.25;;
6113;SDS011;3087;48.392;10.836;2023-05-23T04:04:19;17.45;;;15.57;;
6113;SDS011;3087;48.392;10.836;2023-05-23T04:06:48;29.40;;;23.27;;
6113;SDS011;3087;48.392;10.836;2023-05-23T04:09:15;19.67;;;16.90;;
6113;SDS011;3087;48.392;10.836;2023-05-23T04:11:42;19.35;;;17.08;;
6113;SDS011;3087;48.392;10.836;2023-05-23T04:14:07;19.02;;;15.98;;
6113;SDS011;3087;48.392;10.836;2023-05-23T04:16:33;24.63;;;18.15;;
6113;SDS011;3087;48.392;10.836;2023-05-23T04:19:00;22.33;;;17.90;;
6113;SDS011;3087;48.392;10.836;2023-05-23T04:21:26;21.35;;;19.15;;
6113;SDS011;3087;48.392;10.836;2023-05-23T04:23:52;20.17;;;18.17;;
6113;SDS011;3087;48.392;10.836;2023-05-23T04:26:18;20.80;;;18.40;;
6113;SDS011;3087;48.392;10.836;2023-05-23T04:28:45;25.08;;;19.40;;
6113;SDS011;3087;48.392;10.836;2023-05-23T04:31:12;23.90;;;19.35;;
6113;SDS011;3087;48.392;10.836;2023-05-23T04:33:38;23.20;;;20.02;;
6113;SDS011;3087;48.392;10.836;2023-05-23T04:36:04;23.67;;;20.73;;
6113;SDS011;3087;48.392;10.836;2023-05-23T04:38:33;23.33;;;18.15;;
6113;SDS011;3087;48.392;10.836;2023-05-23T04:40:59;24.42;;;20.85;;
6113;SDS011;3087;48.392;10.836;2023-05-23T04:43:24;20.15;;;16.75;;
6113;SDS011;3087;48.392;10.836;2023-05-23T04:45:53;22.42;;;18.92;;
6113;SDS011;3087;48.392;10.836;2023-05-23T04:48:18;19.45;;;16.92;;
6113;SDS011;3087;48.392;10.836;2023-05-23T04:50:46;19.25;;;15.85;;
6113;SDS011;3087;48.392;10.836;2023-05-23T04:53:12;21.08;;;17.23;;
6113;SDS011;3087;48.392;10.836;2023-05-23T04:55:38;17.30;;;15.43;;
6113;SDS011;3087;48.392;10.836;2023-05-23T04:58:04;19.42;;;17.25;;
6113;SDS011;3087;48.392;10.836;2023-05-23T05:00:29;19.35;;;16.98;;
6113;SDS011;3087;48.392;10.836;2023-05-23T05:02:55;19.95;;;16.83;;
6113;SDS011;3087;48.392;10.836;2023-05-23T05:05:20;19.30;;;16.67;;
6113;SDS011;3087;48.392;10.836;2023-05-23T05:07:46;18.02;;;15.25;;
6113;SDS011;3087;48.392;10.836;2023-05-23T05:10:11;19.63;;;16.42;;
6113;SDS011;3087;48.392;10.836;2023-05-23T05:12:41;20.40;;;16.80;;
6113;SDS011;3087;48.392;10.836;2023-05-23T05:15:08;21.13;;;17.45;;
6113;SDS011;3087;48.392;10.836;2023-05-23T05:17:34;18.40;;;16.23;;
6113;SDS011;3087;48.392;10.836;2023-05-23T05:20:01;20.77;;;17.88;;
6113;SDS011;3087;48.392;10.836;2023-05-23T05:22:32;19.77;;;17.67;;
6113;SDS011;3087;48.392;10.836;2023-05-23T05:24:59;22.08;;;17.52;;
6113;SDS011;3087;48.392;10.836;2023-05-23T05:27:25;21.40;;;17.65;;
6113;SDS011;3087;48.392;10.836;2023-05-23T05:29:51;22.27;;;16.52;;
6113;SDS011;3087;48.392;10.836;2023-05-23T05:32:17;23.05;;;18.63;;
6113;SDS011;3087;48.392;10.836;2023-05-23T05:34:43;24.67;;;19.55;;
6113;SDS011;3087;48.392;10.836;2023-05-23T05:37:09;24.70;;;20.27;;
6113;SDS011;3087;48.392;10.836;2023-05-23T05:39:38;23.25;;;19.33;;
6113;SDS011;3087;48.392;10.836;2023-05-23T05:42:03;24.45;;;21.13;;
6113;SDS011;3087;48.392;10.836;2023-05-23T05:44:29;22.80;;;20.45;;
6113;SDS011;3087;48.392;10.836;2023-05-23T05:46:55;22.80;;;20.13;;
6113;SDS011;3087;48.392;10.836;2023-05-23T05:49:20;23.23;;;20.05;;
6113;SDS011;3087;48.392;10.836;2023-05-23T05:51:46;24.63;;;19.02;;
6113;SDS011;3087;48.392;10.836;2023-05-23T05:54:12;25.30;;;19.88;;
6113;SDS011;3087;48.392;10.836;2023-05-23T05:56:38;25.90;;;18.70;;
6113;SDS011;3087;48.392;10.836;2023-05-23T05:59:03;24.02;;;20.65;;
6113;SDS011;3087;48.392;10.836;2023-05-23T06:01:29;21.23;;;18.48;;
6113;SDS011;3087;48.392;10.836;2023-05-23T06:03:56;21.67;;;18.92;;
6113;SDS011;3087;48.392;10.836;2023-05-23T06:06:22;21.90;;;17.58;;
6113;SDS011;3087;48.392;10.836;2023-05-23T06:08:47;22.95;;;20.35;;
6113;SDS011;3087;48.392;10.836;2023-05-23T06:11:13;22.50;;;20.02;;
6113;SDS011;3087;48.392;10.836;2023-05-23T06:13:39;24.20;;;18.67;;
6113;SDS011;3087;48.392;10.836;2023-05-23T06:16:04;27.27;;;21.77;;
6113;SDS011;3087;48.392;10.836;2023-05-23T06:18:30;29.58;;;22.65;;
6113;SDS011;3087;48.392;10.836;2023-05-23T06:20:56;23.90;;;20.02;;
6113;SDS011;3087;48.392;10.836;2023-05-23T06:23:22;24.40;;;19.45;;
6113;SDS011;3087;48.392;10.836;2023-05-23T06:25:47;25.13;;;20.38;;
6113;SDS011;3087;48.392;10.836;2023-05-23T06:28:13;21.38;;;18.98;;
6113;SDS011;3087;48.392;10.836;2023-05-23T06:30:38;25.60;;;22.00;;
6113;SDS011;3087;48.392;10.836;2023-05-23T06:33:04;27.70;;;21.88;;
6113;SDS011;3087;48.392;10.836;2023-05-23T06:35:30;25.17;;;20.48;;
6113;SDS011;3087;48.392;10.836;2023-05-23T06:37:56;25.45;;;20.42;;
6113;SDS011;3087;48.392;10.836;2023-05-23T06:40:21;23.98;;;21.38;;
6113;SDS011;3087;48.392;10.836;2023-05-23T06:42:47;26.92;;;21.38;;
6113;SDS011;3087;48.392;10.836;2023-05-23T06:45:13;25.02;;;20.83;;
6113;SDS011;3087;48.392;10.836;2023-05-23T06:47:38;25.50;;;20.42;;
6113;SDS011;3087;48.392;10.836;2023-05-23T06:50:07;25.77;;;18.63;;
6113;SDS011;3087;48.392;10.836;2023-05-23T06:52:33;19.92;;;16.85;;
6113;SDS011;3087;48.392;10.836;2023-05-23T06:54:59;22.05;;;18.05;;
6113;SDS011;3087;48.392;10.836;2023-05-23T06:57:25;21.70;;;19.27;;
6113;SDS011;3087;48.392;10.836;2023-05-23T06:59:50;24.55;;;21.58;;
6113;SDS011;3087;48.392;10.836;2023-05-23T07:02:16;26.73;;;21.73;;
6113;SDS011;3087;48.392;10.836;2023-05-23T07:04:41;23.08;;;19.67;;
6113;SDS011;3087;48.392;10.836;2023-05-23T07:07:07;24.52;;;21.38;;
6113;SDS011;3087;48.392;10.836;2023-05-23T07:09:33;23.02;;;19.50;;
6113;SDS011;3087;48.392;10.836;2023-05-23T07:11:58;24.23;;;20.13;;
6113;SDS011;3087;48.392;10.836;2023-05-23T07:14:24;24.20;;;20.35;;
6113;SDS011;3087;48.392;10.836;2023-05-23T07:16:49;23.02;;;20.55;;
6113;SDS011;3087;48.392;10.836;2023-05-23T07:19:15;22.15;;;19.83;;
6113;SDS011;3087;48.392;10.836;2023-05-23T07:21:40;24.52;;;21.10;;
6113;SDS011;3087;48.392;10.836;2023-05-23T07:24:06;24.55;;;19.90;;
6113;SDS011;3087;48.392;10.836;2023-05-23T07:26:32;23.55;;;19.90;;
6113;SDS011;3087;48.392;10.836;2023-05-23T07:28:57;24.67;;;20.73;;
6113;SDS011;3087;48.392;10.836;2023-05-23T07:31:23;25.33;;;20.05;;
6113;SDS011;3087;48.392;10.836;2023-05-23T07:33:48;24.42;;;20.05;;
6113;SDS011;3087;48.392;10.836;2023-05-23T07:36:14;21.35;;;18.38;;
6113;SDS011;3087;48.392;10.836;2023-05-23T07:38:40;22.42;;;18.73;;
6113;SDS011;3087;48.392;10.836;2023-05-23T07:41:06;21.65;;;18.52;;
6113;SDS011;3087;48.392;10.836;2023-05-23T07:43:31;22.38;;;18.92;;
6113;SDS011;3087;48.392;10.836;2023-05-23T07:45:57;25.50;;;18.17;;
6113;SDS011;3087;48.392;10.836;2023-05-23T07:48:22;19.70;;;17.58;;
6113;SDS011;3087;48.392;10.836;2023-05-23T07:50:51;21.20;;;17.88;;
6113;SDS011;3087;48.392;10.836;2023-05-23T07:53:19;21.92;;;18.75;;
6113;SDS011;3087;48.392;10.836;2023-05-23T07:55:45;24.20;;;20.00;;
6113;SDS011;3087;48.392;10.836;2023-05-23T07:58:11;22.30;;;19.30;;
6113;SDS011;3087;48.392;10.836;2023-05-23T08:00:36;21.60;;;17.50;;
6113;SDS011;3087;48.392;10.836;2023-05-23T08:03:02;19.70;;;17.30;;
6113;SDS011;3087;48.392;10.836;2023-05-23T08:05:28;22.45;;;18.83;;
6113;SDS011;3087;48.392;10.836;2023-05-23T08:07:54;26.15;;;20.70;;
6113;SDS011;3087;48.392;10.836;2023-05-23T08:10:19;21.30;;;18.38;;
6113;SDS011;3087;48.392;10.836;2023-05-23T08:12:45;21.38;;;17.48;;
6113;SDS011;3087;48.392;10.836;2023-05-23T08:15:11;21.00;;;17.30;;
6113;SDS011;3087;48.392;10.836;2023-05-23T08:17:38;17.02;;;15.23;;
6113;SDS011;3087;48.392;10.836;2023-05-23T08:20:04;19.95;;;15.82;;
6113;SDS011;3087;48.392;10.836;2023-05-23T08:22:31;19.17;;;16.10;;
6113;SDS011;3087;48.392;10.836;2023-05-23T08:24:56;21.60;;;15.68;;
6113;SDS011;3087;48.392;10.836;2023-05-23T08:27:22;18.98;;;16.30;;
6113;SDS011;3087;48.392;10.836;2023-05-23T08:29:48;18.60;;;16.35;;
6113;SDS011;3087;48.392;10.836;2023-05-23T08:32:13;19.33;;;16.10;;
6113;SDS011;3087;48.392;10.836;2023-05-23T08:34:39;20.90;;;15.85;;
6113;SDS011;3087;48.392;10.836;2023-05-23T08:37:05;17.38;;;15.25;;
6113;SDS011;3087;48.392;10.836;2023-05-23T08:39:31;22.00;;;16.25;;
6113;SDS011;3087;48.392;10.836;2023-05-23T08:41:56;19.42;;;15.63;;
6113;SDS011;3087;48.392;10.836;2023-05-23T08:44:22;19.40;;;16.67;;
6113;SDS011;3087;48.392;10.836;2023-05-23T08:46:48;19.23;;;16.92;;
6113;SDS011;3087;48.392;10.836;2023-05-23T08:49:17;19.23;;;15.73;;
6113;SDS011;3087;48.392;10.836;2023-05-23T08:51:43;21.20;;;16.80;;
6113;SDS011;3087;48.392;10.836;2023-05-23T08:54:10;19.58;;;16.45;;
6113;SDS011;3087;48.392;10.836;2023-05-23T08:56:39;20.88;;;15.35;;
6113;SDS011;3087;48.392;10.836;2023-05-23T08:59:18;24.20;;;17.90;;
6113;SDS011;3087;48.392;10.836;2023-05-23T09:01:45;22.83;;;18.92;;
6113;SDS011;3087;48.392;10.836;2023-05-23T09:04:12;20.50;;;17.17;;
6113;SDS011;3087;48.392;10.836;2023-05-23T09:06:38;19.23;;;17.23;;
6113;SDS011;3087;48.392;10.836;2023-05-23T09:09:03;19.02;;;17.00;;
6113;SDS011;3087;48.392;10.836;2023-05-23T09:11:29;19.38;;;17.23;;
6113;SDS011;3087;48.392;10.836;2023-05-23T09:13:58;20.20;;;16.75;;
6113;SDS011;3087;48.392;10.836;2023-05-23T09:16:26;19.67;;;16.13;;
6113;SDS011;3087;48.392;10.836;2023-05-23T09:18:56;17.52;;;15.73;;
6113;SDS011;3087;48.392;10.836;2023-05-23T09:21:23;19.65;;;15.50;;
6113;SDS011;3087;48.392;10.836;2023-05-23T09:26:47;16.65;;;14.75;;
6113;SDS011;3087;48.392;10.836;2023-05-23T09:29:13;18.30;;;16.30;;
6113;SDS011;3087;48.392;10.836;2023-05-23T09:31:43;18.45;;;15.80;;
6113;SDS011;3087;48.392;10.836;2023-05-23T09:34:08;16.67;;;14.27;;
6113;SDS011;3087;48.392;10.836;2023-05-23T09:36:34;17.45;;;14.05;;
6113;SDS011;3087;48.392;10.836;2023-05-23T09:39:01;16.77;;;14.60;;
6113;SDS011;3087;48.392;10.836;2023-05-23T09:41:32;15.32;;;13.80;;
6113;SDS011;3087;48.392;10.836;2023-05-23T09:43:59;17.38;;;15.52;;
6113;SDS011;3087;48.392;10.836;2023-05-23T09:46:29;15.57;;;13.63;;
6113;SDS011;3087;48.392;10.836;2023-05-23T09:48:55;17.02;;;13.60;;
6113;SDS011;3087;48.392;10.836;2023-05-23T09:51:22;15.82;;;14.18;;
6113;SDS011;3087;48.392;10.836;2023-05-23T09:53:51;17.90;;;16.05;;
6113;SDS011;3087;48.392;10.836;2023-05-23T09:56:18;16.85;;;14.73;;
6113;SDS011;3087;48.392;10.836;2023-05-23T09:58:48;16.77;;;15.05;;
6113;SDS011;3087;48.392;10.836;2023-05-23T10:01:15;15.45;;;13.82;;
6113;SDS011;3087;48.392;10.836;2023-05-23T10:03:44;18.70;;;14.85;;
6113;SDS011;3087;48.392;10.836;2023-05-23T10:06:16;14.85;;;13.10;;
6113;SDS011;3087;48.392;10.836;2023-05-23T10:08:51;19.33;;;15.20;;
6113;SDS011;3087;48.392;10.836;2023-05-23T10:11:44;15.15;;;13.45;;
6113;SDS011;3087;48.392;10.836;2023-05-23T10:14:37;14.15;;;12.65;;
6113;SDS011;3087;48.392;10.836;2023-05-23T10:17:13;14.77;;;13.18;;
6113;SDS011;3087;48.392;10.836;2023-05-23T10:22:16;13.93;;;12.57;;
6113;SDS011;3087;48.392;10.836;2023-05-23T10:24:43;14.55;;;13.05;;
6113;SDS011;3087;48.392;10.836;2023-05-23T10:27:10;13.82;;;12.25;;
6113;SDS011;3087;48.392;10.836;2023-05-23T10:29:36;14.32;;;11.93;;
6113;SDS011;3087;48.392;10.836;2023-05-23T10:32:03;13.52;;;12.13;;
6113;SDS011;3087;48.392;10.836;2023-05-23T10:34:35;13.80;;;11.70;;
6113;SDS011;3087;48.392;10.836;2023-05-23T10:37:09;16.35;;;12.80;;
6113;SDS011;3087;48.392;10.836;2023-05-23T10:45:17;13.80;;;12.45;;
6113;SDS011;3087;48.392;10.836;2023-05-23T10:47:43;14.98;;;12.50;;
6113;SDS011;3087;48.392;10.836;2023-05-23T10:50:14;13.23;;;11.50;;
6113;SDS011;3087;48.392;10.836;2023-05-23T10:52:41;12.50;;;11.20;;
6113;SDS011;3087;48.392;10.836;2023-05-23T10:55:14;14.30;;;12.10;;
6113;SDS011;3087;48.392;10.836;2023-05-23T10:57:41;13.68;;;12.32;;
6113;SDS011;3087;48.392;10.836;2023-05-23T11:00:12;13.07;;;11.77;;
6113;SDS011;3087;48.392;10.836;2023-05-23T11:02:45;13.77;;;12.32;;
6113;SDS011;3087;48.392;10.836;2023-05-23T11:05:18;13.73;;;11.80;;
6113;SDS011;3087;48.392;10.836;2023-05-23T11:08:05;13.30;;;11.90;;
6113;SDS011;3087;48.392;10.836;2023-05-23T11:10:31;18.55;;;11.90;;
6113;SDS011;3087;48.392;10.836;2023-05-23T11:13:06;23.80;;;13.07;;
6113;SDS011;3087;48.392;10.836;2023-05-23T11:15:41;15.00;;;12.93;;
6113;SDS011;3087;48.392;10.836;2023-05-23T11:18:09;15.57;;;12.00;;
6113;SDS011;3087;48.392;10.836;2023-05-23T11:20:36;13.32;;;11.93;;
6113;SDS011;3087;48.392;10.836;2023-05-23T11:23:04;15.75;;;11.82;;
6113;SDS011;3087;48.392;10.836;2023-05-23T11:25:42;15.60;;;12.05;;
6113;SDS011;3087;48.392;10.836;2023-05-23T11:28:09;15.27;;;13.10;;
6113;SDS011;3087;48.392;10.836;2023-05-23T11:30:37;16.30;;;13.15;;
6113;SDS011;3087;48.392;10.836;2023-05-23T11:33:06;12.73;;;11.38;;
6113;SDS011;3087;48.392;10.836;2023-05-23T11:35:34;14.55;;;12.90;;
6113;SDS011;3087;48.392;10.836;2023-05-23T11:38:01;15.25;;;11.93;;
6113;SDS011;3087;48.392;10.836;2023-05-23T11:40:38;14.98;;;12.07;;
6113;SDS011;3087;48.392;10.836;2023-05-23T11:43:06;14.13;;;12.73;;
6113;SDS011;3087;48.392;10.836;2023-05-23T11:45:34;13.85;;;12.45;;
6113;SDS011;3087;48.392;10.836;2023-05-23T11:48:08;14.05;;;11.98;;
6113;SDS011;3087;48.392;10.836;2023-05-23T11:50:42;12.30;;;11.07;;
6113;SDS011;3087;48.392;10.836;2023-05-23T11:53:11;14.48;;;12.98;;
6113;SDS011;3087;48.392;10.836;2023-05-23T11:55:38;16.02;;;12.95;;
6113;SDS011;3087;48.392;10.836;2023-05-23T11:58:05;15.82;;;12.43;;
6113;SDS011;3087;48.392;10.836;2023-05-23T12:00:31;14.35;;;12.32;;
6113;SDS011;3087;48.392;10.836;2023-05-23T12:02:57;13.07;;;11.73;;
6113;SDS011;3087;48.392;10.836;2023-05-23T12:05:22;14.05;;;12.07;;
6113;SDS011;3087;48.392;10.836;2023-05-23T12:07:48;12.73;;;11.43;;
6113;SDS011;3087;48.392;10.836;2023-05-23T12:10:14;15.88;;;12.35;;
6113;SDS011;3087;48.392;10.836;2023-05-23T12:12:41;14.10;;;11.05;;
6113;SDS011;3087;48.392;10.836;2023-05-23T12:15:08;14.48;;;12.85;;
6113;SDS011;3087;48.392;10.836;2023-05-23T12:17:35;14.52;;;12.48;;
6113;SDS011;3087;48.392;10.836;2023-05-23T12:20:02;14.10;;;12.70;;
6113;SDS011;3087;48.392;10.836;2023-05-23T12:22:29;14.65;;;11.80;;
6113;SDS011;3087;48.392;10.836;2023-05-23T12:24:55;15.90;;;13.57;;
6113;SDS011;3087;48.392;10.836;2023-05-23T12:27:27;21.00;;;12.43;;
6113;SDS011;3087;48.392;10.836;2023-05-23T12:30:03;13.88;;;12.57;;
6113;SDS011;3087;48.392;10.836;2023-05-23T12:32:30;14.90;;;13.05;;
6113;SDS011;3087;48.392;10.836;2023-05-23T12:34:56;17.60;;;15.30;;
6113;SDS011;3087;48.392;10.836;2023-05-23T12:37:21;13.40;;;12.00;;
6113;SDS011;3087;48.392;10.836;2023-05-23T12:39:48;13.45;;;11.45;;
6113;SDS011;3087;48.392;10.836;2023-05-23T12:42:14;13.48;;;12.07;;
6113;SDS011;3087;48.392;10.836;2023-05-23T12:44:40;13.90;;;12.07;;
6113;SDS011;3087;48.392;10.836;2023-05-23T12:47:07;15.60;;;12.52;;
6113;SDS011;3087;48.392;10.836;2023-05-23T12:49:33;13.60;;;11.80;;
6113;SDS011;3087;48.392;10.836;2023-05-23T12:51:58;16.83;;;12.80;;
6113;SDS011;3087;48.392;10.836;2023-05-23T12:54:24;16.88;;;11.60;;
6113;SDS011;3087;48.392;10.836;2023-05-23T12:56:50;15.02;;;10.77;;
6113;SDS011;3087;48.392;10.836;2023-05-23T12:59:15;15.25;;;11.82;;
6113;SDS011;3087;48.392;10.836;2023-05-23T13:01:41;12.02;;;10.30;;
6113;SDS011;3087;48.392;10.836;2023-05-23T13:04:07;13.23;;;10.13;;
6113;SDS011;3087;48.392;10.836;2023-05-23T13:06:32;13.65;;;10.13;;
6113;SDS011;3087;48.392;10.836;2023-05-23T13:08:58;11.98;;;10.43;;
6113;SDS011;3087;48.392;10.836;2023-05-23T13:11:23;11.95;;;10.75;;
6113;SDS011;3087;48.392;10.836;2023-05-23T13:13:49;14.75;;;11.27;;
6113;SDS011;3087;48.392;10.836;2023-05-23T13:16:15;13.60;;;10.38;;
6113;SDS011;3087;48.392;10.836;2023-05-23T13:18:41;13.18;;;10.18;;
6113;SDS011;3087;48.392;10.836;2023-05-23T13:21:07;11.38;;;10.20;;
6113;SDS011;3087;48.392;10.836;2023-05-23T13:23:33;14.23;;;10.05;;
6113;SDS011;3087;48.392;10.836;2023-05-23T13:26:00;11.00;;;9.82;;
6113;SDS011;3087;48.392;10.836;2023-05-23T13:28:26;12.98;;;10.23;;
6113;SDS011;3087;48.392;10.836;2023-05-23T13:30:52;12.25;;;9.90;;
6113;SDS011;3087;48.392;10.836;2023-05-23T13:33:17;12.70;;;9.52;;
6113;SDS011;3087;48.392;10.836;2023-05-23T13:35:43;12.88;;;9.68;;
6113;SDS011;3087;48.392;10.836;2023-05-23T13:38:09;12.18;;;8.95;;
6113;SDS011;3087;48.392;10.836;2023-05-23T13:40:35;9.90;;;8.70;;
6113;SDS011;3087;48.392;10.836;2023-05-23T13:43:01;10.88;;;9.02;;
6113;SDS011;3087;48.392;10.836;2023-05-23T13:45:26;12.57;;;9.85;;
6113;SDS011;3087;48.392;10.836;2023-05-23T13:47:52;10.02;;;8.60;;
6113;SDS011;3087;48.392;10.836;2023-05-23T13:50:18;12.23;;;9.60;;
6113;SDS011;3087;48.392;10.836;2023-05-23T13:52:43;11.52;;;8.65;;
6113;SDS011;3087;48.392;10.836;2023-05-23T13:55:09;10.85;;;9.13;;
6113;SDS011;3087;48.392;10.836;2023-05-23T13:57:35;11.15;;;9.13;;
6113;SDS011;3087;48.392;10.836;2023-05-23T14:00:00;11.15;;;8.73;;
6113;SDS011;3087;48.392;10.836;2023-05-23T14:02:27;13.85;;;9.10;;
6113;SDS011;3087;48.392;10.836;2023-05-23T14:04:55;11.02;;;9.68;;
6113;SDS011;3087;48.392;10.836;2023-05-23T14:07:21;15.07;;;10.18;;
6113;SDS011;3087;48.392;10.836;2023-05-23T14:09:47;12.80;;;9.77;;
6113;SDS011;3087;48.392;10.836;2023-05-23T14:12:13;12.27;;;9.90;;
6113;SDS011;3087;48.392;10.836;2023-05-23T14:14:38;10.00;;;9.00;;
6113;SDS011;3087;48.392;10.836;2023-05-23T14:17:04;10.63;;;9.52;;
6113;SDS011;3087;48.392;10.836;2023-05-23T14:19:30;10.90;;;9.70;;
6113;SDS011;3087;48.392;10.836;2023-05-23T14:21:55;10.13;;;9.13;;
6113;SDS011;3087;48.392;10.836;2023-05-23T14:24:21;10.40;;;9.32;;
6113;SDS011;3087;48.392;10.836;2023-05-23T14:26:47;10.77;;;9.10;;
6113;SDS011;3087;48.392;10.836;2023-05-23T14:29:13;248.57;;;25.65;;
6113;SDS011;3087;48.392;10.836;2023-05-23T14:31:40;16.20;;;8.88;;
6113;SDS011;3087;48.392;10.836;2023-05-23T14:34:05;10.80;;;9.68;;
6113;SDS011;3087;48.392;10.836;2023-05-23T14:36:31;63.90;;;13.52;;
6113;SDS011;3087;48.392;10.836;2023-05-23T14:38:57;20.73;;;9.27;;
6113;SDS011;3087;48.392;10.836;2023-05-23T14:41:23;15.13;;;8.60;;
6113;SDS011;3087;48.392;10.836;2023-05-23T14:43:48;11.70;;;8.65;;
6113;SDS011;3087;48.392;10.836;2023-05-23T14:46:15;9.25;;;8.40;;
6113;SDS011;3087;48.392;10.836;2023-05-23T14:48:41;57.85;;;11.73;;
6113;SDS011;3087;48.392;10.836;2023-05-23T14:51:07;87.78;;;13.40;;
6113;SDS011;3087;48.392;10.836;2023-05-23T14:53:34;27.85;;;8.70;;